Time;durP1;ratioP1;P1;durP2;ratioP2;P2;SDS_P1;SDS_P2;PMS_P1;PMS_P2;Temp;Humidity;BMP_temperature;BMP_pressure;BME280_temperature;BME280_humidity;BME280_pressure;Samples;Min_cycle;Max_cycle;Signal;HPM_P1;HPM_P2
2022/11/02 00:00:47;;;;;;;40.42;8.65;;;;;;;;;;4992391;28;20077;-60
2022/11/02 00:03:15;;;;;;;44.78;8.32;;;;;;;;;;4992420;28;20058;-58
2022/11/02 00:05:41;;;;;;;39.67;8.68;;;;;;;;;;4992051;28;20473;-57
2022/11/02 00:08:09;;;;;;;29.15;8.52;;;;;;;;;;4992023;28;20089;-59
2022/11/02 00:10:36;;;;;;;32.22;7.95;;;;;;;;;;4992399;28;20085;-59
2022/11/02 00:13:03;;;;;;;39.20;8.20;;;;;;;;;;4977197;28;20057;-58
2022/11/02 00:15:32;;;;;;;38.38;7.75;;;;;;;;;;4992325;28;20408;-57
2022/11/02 00:18:01;;;;;;;36.08;7.65;;;;;;;;;;4992075;28;20026;-56
2022/11/02 00:20:28;;;;;;;35.30;7.75;;;;;;;;;;4992427;28;20499;-57
2022/11/02 00:22:57;;;;;;;39.42;8.65;;;;;;;;;;4992204;28;20037;-57
2022/11/02 00:25:25;;;;;;;32.40;8.82;;;;;;;;;;4992229;28;20041;-59
2022/11/02 00:27:52;;;;;;;34.03;7.60;;;;;;;;;;4990948;28;20691;-58
2022/11/02 00:30:19;;;;;;;38.70;8.05;;;;;;;;;;4979535;28;20433;-59
2022/11/02 00:32:46;;;;;;;33.83;7.60;;;;;;;;;;4972180;28;20128;-59
2022/11/02 00:35:13;;;;;;;30.42;8.00;;;;;;;;;;4978139;28;20034;-57
2022/11/02 00:37:40;;;;;;;31.10;8.40;;;;;;;;;;4991921;28;20503;-60
2022/11/02 00:40:08;;;;;;;35.47;7.50;;;;;;;;;;4981301;28;20032;-60
2022/11/02 00:42:35;;;;;;;37.25;9.35;;;;;;;;;;4991065;28;20038;-58
2022/11/02 00:45:02;;;;;;;37.22;9.60;;;;;;;;;;4986502;28;20471;-58
2022/11/02 00:47:28;;;;;;;34.40;8.93;;;;;;;;;;4988216;28;20033;-59
2022/11/02 00:49:55;;;;;;;35.70;9.85;;;;;;;;;;4986746;28;20069;-58
2022/11/02 00:52:22;;;;;;;42.17;10.25;;;;;;;;;;4981984;28;20485;-58
2022/11/02 00:54:49;;;;;;;47.20;10.20;;;;;;;;;;4985366;28;20110;-59
2022/11/02 00:57:17;;;;;;;43.45;10.35;;;;;;;;;;4986172;28;20109;-55
2022/11/02 00:59:44;;;;;;;39.17;10.80;;;;;;;;;;4981112;28;20026;-57
2022/11/02 01:02:11;;;;;;;41.20;10.60;;;;;;;;;;4976752;28;20045;-57
2022/11/02 01:04:38;;;;;;;49.08;10.15;;;;;;;;;;4975513;28;20027;-58
2022/11/02 01:07:05;;;;;;;38.88;8.77;;;;;;;;;;4975574;28;20038;-60
2022/11/02 01:09:33;;;;;;;49.10;10.73;;;;;;;;;;4975661;28;20106;-61
2022/11/02 01:12:00;;;;;;;43.92;10.18;;;;;;;;;;4975459;28;20102;-61
2022/11/02 01:14:27;;;;;;;35.88;9.38;;;;;;;;;;4975927;28;20520;-56
2022/11/02 01:16:56;;;;;;;48.03;10.25;;;;;;;;;;4982148;28;20049;-57
2022/11/02 01:19:24;;;;;;;49.72;10.13;;;;;;;;;;4995452;28;20396;-57
2022/11/02 01:21:51;;;;;;;41.33;8.80;;;;;;;;;;4995508;28;20481;-60
2022/11/02 01:24:18;;;;;;;44.03;10.00;;;;;;;;;;4995373;28;20026;-60
2022/11/02 01:26:46;;;;;;;51.20;9.75;;;;;;;;;;4995303;28;20034;-58
2022/11/02 01:29:13;;;;;;;41.58;8.80;;;;;;;;;;4995197;28;20045;-60
2022/11/02 01:31:40;;;;;;;49.40;9.98;;;;;;;;;;4995341;28;20389;-61
2022/11/02 01:34:07;;;;;;;41.22;9.35;;;;;;;;;;4995324;28;20092;-57
2022/11/02 01:36:34;;;;;;;38.50;9.45;;;;;;;;;;4994730;28;20022;-60
2022/11/02 01:39:01;;;;;;;44.78;9.65;;;;;;;;;;4994229;28;20095;-61
2022/11/02 01:41:28;;;;;;;44.80;9.45;;;;;;;;;;4989135;28;20165;-58
2022/11/02 01:43:57;;;;;;;54.88;8.95;;;;;;;;;;4984129;28;20037;-61
2022/11/02 01:46:43;;;;;;;42.72;8.43;;;;;;;;;;4982682;28;20747;-59
2022/11/02 01:49:14;;;;;;;42.47;8.70;;;;;;;;;;4983507;28;20038;-58
2022/11/02 01:51:41;;;;;;;44.97;7.85;;;;;;;;;;4984133;28;20860;-60
2022/11/02 01:54:10;;;;;;;39.38;8.63;;;;;;;;;;4986028;28;20030;-60
2022/11/02 01:56:38;;;;;;;41.03;8.55;;;;;;;;;;4989027;28;20030;-60
2022/11/02 01:59:08;;;;;;;31.10;7.30;;;;;;;;;;4990291;28;20080;-61
2022/11/02 02:01:35;;;;;;;32.20;8.18;;;;;;;;;;4990758;28;20030;-60
2022/11/02 02:04:03;;;;;;;26.77;7.25;;;;;;;;;;4990225;28;20496;-61
2022/11/02 02:06:30;;;;;;;31.38;7.10;;;;;;;;;;4985770;28;20105;-62
2022/11/02 02:08:58;;;;;;;31.00;7.40;;;;;;;;;;4982898;28;20022;-62
2022/11/02 02:11:30;;;;;;;25.17;6.85;;;;;;;;;;4982508;28;20034;-59
2022/11/02 02:14:07;;;;;;;29.10;7.20;;;;;;;;;;4975448;28;20411;-59
2022/11/02 02:16:43;;;;;;;32.03;7.10;;;;;;;;;;4963411;28;20068;-63
2022/11/02 02:19:33;;;;;;;29.65;6.93;;;;;;;;;;4962444;28;20110;-59
2022/11/02 02:22:00;;;;;;;29.90;6.47;;;;;;;;;;4961605;28;20074;-61
2022/11/02 02:24:49;;;;;;;27.42;6.88;;;;;;;;;;4968795;28;20042;-61
2022/11/02 02:27:28;;;;;;;22.73;5.88;;;;;;;;;;4974726;28;20082;-63
2022/11/02 02:29:55;;;;;;;28.00;6.50;;;;;;;;;;4965395;28;20031;-61
2022/11/02 02:32:22;;;;;;;26.33;5.75;;;;;;;;;;4961720;28;20098;-61
2022/11/02 02:34:52;;;;;;;25.85;5.82;;;;;;;;;;4953982;28;20070;-61
2022/11/02 02:37:25;;;;;;;21.17;6.13;;;;;;;;;;4954116;28;20079;-63
2022/11/02 02:39:57;;;;;;;25.88;6.65;;;;;;;;;;4954280;28;20106;-63
2022/11/02 02:42:35;;;;;;;21.35;5.65;;;;;;;;;;4954186;28;20082;-63
2022/11/02 02:45:14;;;;;;;18.70;5.20;;;;;;;;;;4954313;28;20086;-61
2022/11/02 02:47:45;;;;;;;22.25;5.40;;;;;;;;;;4954485;28;20023;-63
2022/11/02 02:50:17;;;;;;;23.50;5.50;;;;;;;;;;4954304;28;20031;-63
2022/11/02 02:52:46;;;;;;;22.13;5.53;;;;;;;;;;4954435;28;20493;-60
2022/11/02 02:55:16;;;;;;;18.25;5.20;;;;;;;;;;4972207;28;20039;-60
2022/11/02 02:57:44;;;;;;;16.60;4.75;;;;;;;;;;4974463;28;20046;-61
2022/11/02 03:00:16;;;;;;;20.65;4.97;;;;;;;;;;4974414;28;20086;-63
2022/11/02 03:02:59;;;;;;;19.65;4.38;;;;;;;;;;4974550;28;20500;-60
2022/11/02 03:05:36;;;;;;;18.83;4.70;;;;;;;;;;4974354;28;20452;-61
2022/11/02 03:08:07;;;;;;;17.23;5.07;;;;;;;;;;4974304;28;20031;-60
2022/11/02 03:10:46;;;;;;;18.52;4.97;;;;;;;;;;4974247;28;20362;-63
2022/11/02 03:13:16;;;;;;;16.00;4.40;;;;;;;;;;4978502;28;20046;-63
2022/11/02 03:15:50;;;;;;;22.40;4.70;;;;;;;;;;4993533;28;20082;-63
2022/11/02 03:18:22;;;;;;;16.90;4.13;;;;;;;;;;4993475;28;20026;-61
2022/11/02 03:20:54;;;;;;;17.27;4.63;;;;;;;;;;4992828;28;20365;-63
2022/11/02 03:23:24;;;;;;;14.45;4.40;;;;;;;;;;4993562;28;20034;-63
2022/11/02 03:26:00;;;;;;;14.70;3.63;;;;;;;;;;4993127;28;20480;-63
2022/11/02 03:28:27;;;;;;;12.52;3.80;;;;;;;;;;4993278;28;20447;-61
2022/11/02 03:31:09;;;;;;;20.50;4.40;;;;;;;;;;4993243;28;20040;-60
2022/11/02 03:33:38;;;;;;;13.38;3.90;;;;;;;;;;4993322;28;20046;-60
2022/11/02 03:36:10;;;;;;;16.17;3.90;;;;;;;;;;4993242;28;20022;-63
2022/11/02 03:38:45;;;;;;;14.00;3.78;;;;;;;;;;4993246;28;20490;-63
2022/11/02 03:41:13;;;;;;;13.65;3.60;;;;;;;;;;4993010;28;20076;-61
2022/11/02 03:43:41;;;;;;;15.88;3.60;;;;;;;;;;4993152;28;20088;-60
2022/11/02 03:46:10;;;;;;;15.00;3.60;;;;;;;;;;4992979;28;20125;-63
2022/11/02 03:48:42;;;;;;;15.32;3.50;;;;;;;;;;4993025;28;20026;-63
2022/11/02 03:51:09;;;;;;;;;;;;;;;;;;4993280;28;20030;-63
2022/11/02 03:53:49;;;;;;;14.10;3.33;;;;;;;;;;4992928;28;20415;-63
2022/11/02 03:56:22;;;;;;;14.02;3.42;;;;;;;;;;4992810;28;20084;-61
2022/11/02 03:58:49;;;;;;;13.25;3.50;;;;;;;;;;4992785;28;20062;-63
2022/11/02 04:01:16;;;;;;;11.60;2.97;;;;;;;;;;4993334;28;20544;-61
2022/11/02 04:03:44;;;;;;;10.57;3.05;;;;;;;;;;4993279;28;20030;-61
2022/11/02 04:06:11;;;;;;;10.52;3.20;;;;;;;;;;4992828;28;20018;-60
2022/11/02 04:08:46;;;;;;;14.07;3.20;;;;;;;;;;4992437;28;20038;-60
2022/11/02 04:16:43;;;;;;;12.45;2.90;;;;;;;;;;4992692;28;20738;-60
2022/11/02 04:19:29;;;;;;;10.63;2.88;;;;;;;;;;4992395;28;20026;-63
2022/11/02 04:27:26;;;;;;;9.18;2.75;;;;;;;;;;4992535;28;20106;-61
2022/11/02 04:29:53;;;;;;;10.95;2.58;;;;;;;;;;4992607;28;20038;-60
2022/11/02 04:35:06;;;;;;;9.15;2.85;;;;;;;;;;4992772;28;20049;-63
2022/11/02 04:40:23;;;;;;;8.23;2.80;;;;;;;;;;4992450;28;20451;-63
2022/11/02 04:42:50;;;;;;;8.63;2.70;;;;;;;;;;4992295;28;20086;-61
2022/11/02 04:45:17;;;;;;;12.13;2.70;;;;;;;;;;4992399;28;20141;-61
2022/11/02 04:47:44;;;;;;;9.02;2.70;;;;;;;;;;4992120;28;20027;-61
2022/11/02 04:50:11;;;;;;;8.77;2.47;;;;;;;;;;4992354;28;20038;-63
2022/11/02 04:52:38;;;;;;;8.02;3.00;;;;;;;;;;4974677;28;20559;-63
2022/11/02 04:55:05;;;;;;;9.18;2.50;;;;;;;;;;4978624;28;20072;-60
2022/11/02 04:57:32;;;;;;;5.90;2.17;;;;;;;;;;4992250;28;20027;-63
2022/11/02 05:00:00;;;;;;;8.25;2.20;;;;;;;;;;4992115;28;20480;-61
2022/11/02 05:02:27;;;;;;;6.72;2.53;;;;;;;;;;4992245;28;20018;-63
2022/11/02 05:04:54;;;;;;;7.68;2.05;;;;;;;;;;4992145;28;20100;-63
2022/11/02 05:07:20;;;;;;;9.52;2.60;;;;;;;;;;4991874;28;20034;-61
2022/11/02 05:09:47;;;;;;;4.55;2.15;;;;;;;;;;4992151;28;20488;-60
2022/11/02 05:12:14;;;;;;;6.47;2.70;;;;;;;;;;4991995;28;20030;-63
2022/11/02 05:14:41;;;;;;;9.20;2.25;;;;;;;;;;4974376;28;20101;-63
2022/11/02 05:17:08;;;;;;;8.13;2.22;;;;;;;;;;4991875;28;20030;-61
2022/11/02 05:19:35;;;;;;;12.02;2.03;;;;;;;;;;4992063;28;20030;-63
2022/11/02 05:22:02;;;;;;;6.70;2.40;;;;;;;;;;4992019;28;20073;-63
2022/11/02 05:24:29;;;;;;;6.75;1.95;;;;;;;;;;4991980;28;20042;-61
2022/11/02 05:26:56;;;;;;;6.90;2.13;;;;;;;;;;4991906;28;20057;-63
2022/11/02 05:29:23;;;;;;;7.32;2.10;;;;;;;;;;4991871;28;20034;-63
2022/11/02 05:31:50;;;;;;;5.35;2.00;;;;;;;;;;4991909;28;20035;-63
2022/11/02 05:34:17;;;;;;;7.63;2.22;;;;;;;;;;4991811;28;20033;-61
2022/11/02 05:36:46;;;;;;;6.75;2.00;;;;;;;;;;4992011;28;20029;-63
2022/11/02 05:39:13;;;;;;;4.70;1.75;;;;;;;;;;4991483;28;20049;-63
2022/11/02 05:41:40;;;;;;;5.90;2.00;;;;;;;;;;4991904;28;20481;-61
2022/11/02 05:44:07;;;;;;;7.15;2.03;;;;;;;;;;4994979;28;20074;-63
2022/11/02 05:46:34;;;;;;;5.90;1.88;;;;;;;;;;4995227;28;20504;-63
2022/11/02 05:49:01;;;;;;;6.28;2.00;;;;;;;;;;4995205;28;20041;-60
2022/11/02 05:51:28;;;;;;;5.90;2.17;;;;;;;;;;4994974;28;20400;-61
2022/11/02 05:53:55;;;;;;;5.30;2.00;;;;;;;;;;4995197;28;20045;-63
2022/11/02 05:56:22;;;;;;;3.67;1.70;;;;;;;;;;4995014;28;20117;-63
2022/11/02 05:58:50;;;;;;;4.68;1.70;;;;;;;;;;4994842;28;20022;-60
2022/11/02 06:01:17;;;;;;;6.25;1.65;;;;;;;;;;4992883;28;20053;-61
2022/11/02 06:03:44;;;;;;;6.13;1.90;;;;;;;;;;4994928;28;20021;-63
2022/11/02 06:06:11;;;;;;;4.80;1.80;;;;;;;;;;4994951;28;20049;-63
2022/11/02 06:08:39;;;;;;;6.70;2.00;;;;;;;;;;4994646;28;20117;-63
2022/11/02 06:11:07;;;;;;;6.47;1.70;;;;;;;;;;4994784;28;20030;-63
2022/11/02 06:13:34;;;;;;;3.85;1.45;;;;;;;;;;4994118;28;20046;-62
2022/11/02 06:16:01;;;;;;;5.72;1.88;;;;;;;;;;4994861;28;20053;-60
2022/11/02 06:18:30;;;;;;;3.72;1.63;;;;;;;;;;4994693;28;20488;-60
2022/11/02 06:20:57;;;;;;;3.33;1.50;;;;;;;;;;4994504;28;20084;-63
2022/11/02 06:23:25;;;;;;;4.97;1.60;;;;;;;;;;4994629;28;20022;-61
2022/11/02 06:25:56;;;;;;;4.10;1.55;;;;;;;;;;4994613;28;20046;-60
2022/11/02 06:28:23;;;;;;;2.75;1.30;;;;;;;;;;4994505;28;20037;-63
2022/11/02 06:30:50;;;;;;;5.55;1.85;;;;;;;;;;4994472;28;20030;-63
2022/11/02 06:33:18;;;;;;;3.22;1.50;;;;;;;;;;4994438;28;20107;-60
2022/11/02 06:35:49;;;;;;;4.65;1.88;;;;;;;;;;4994291;28;20030;-61
2022/11/02 06:38:16;;;;;;;6.70;1.60;;;;;;;;;;4994369;28;20041;-61
2022/11/02 06:40:43;;;;;;;4.18;1.67;;;;;;;;;;4994440;28;20503;-63
2022/11/02 06:43:11;;;;;;;3.70;1.42;;;;;;;;;;4994326;28;20015;-60
2022/11/02 06:45:38;;;;;;;4.15;1.45;;;;;;;;;;4994231;28;20121;-60
2022/11/02 06:48:05;;;;;;;4.70;1.40;;;;;;;;;;4994012;28;20030;-61
2022/11/02 06:50:31;;;;;;;3.92;1.27;;;;;;;;;;4994102;28;20030;-61
2022/11/02 06:52:58;;;;;;;4.47;1.55;;;;;;;;;;4993907;28;20030;-60
2022/11/02 06:55:25;;;;;;;4.13;1.70;;;;;;;;;;4993030;28;20420;-60
2022/11/02 06:57:53;;;;;;;6.85;1.58;;;;;;;;;;4993976;28;20026;-60
2022/11/02 07:00:20;;;;;;;3.03;1.40;;;;;;;;;;4993796;28;20026;-63
2022/11/02 07:02:59;;;;;;;4.57;1.55;;;;;;;;;;4994027;28;20022;-63
2022/11/02 07:05:26;;;;;;;5.95;1.50;;;;;;;;;;4993717;28;20472;-60
2022/11/02 07:07:53;;;;;;;3.55;1.45;;;;;;;;;;4993764;28;20124;-60
2022/11/02 07:10:20;;;;;;;3.55;1.30;;;;;;;;;;4993639;28;20026;-61
2022/11/02 07:12:47;;;;;;;4.68;1.45;;;;;;;;;;4993410;28;20045;-61
2022/11/02 07:15:14;;;;;;;3.42;1.55;;;;;;;;;;4993700;28;20110;-63
2022/11/02 07:17:41;;;;;;;6.70;1.42;;;;;;;;;;4993553;28;20027;-63
2022/11/02 07:20:11;;;;;;;3.47;1.17;;;;;;;;;;4993582;28;20598;-60
2022/11/02 07:22:38;;;;;;;5.00;1.63;;;;;;;;;;4993422;28;20030;-63
2022/11/02 07:25:05;;;;;;;6.15;1.40;;;;;;;;;;4993319;28;20026;-60
2022/11/02 07:27:32;;;;;;;4.38;1.38;;;;;;;;;;4993217;28;20023;-60
2022/11/02 07:29:59;;;;;;;4.03;1.27;;;;;;;;;;4993393;28;20030;-63
2022/11/02 07:32:26;;;;;;;4.75;1.67;;;;;;;;;;4993141;28;20384;-60
2022/11/02 07:34:53;;;;;;;5.43;1.40;;;;;;;;;;4993344;28;20582;-60
2022/11/02 07:37:20;;;;;;;4.78;1.20;;;;;;;;;;4993075;28;20101;-60
2022/11/02 07:39:47;;;;;;;3.92;1.10;;;;;;;;;;4979587;28;20132;-63
2022/11/02 07:42:14;;;;;;;3.28;1.45;;;;;;;;;;4993110;28;20033;-60
2022/11/02 07:44:41;;;;;;;3.13;1.10;;;;;;;;;;4992972;28;20029;-63
2022/11/02 07:47:07;;;;;;;2.35;1.30;;;;;;;;;;4992905;28;20042;-60
2022/11/02 07:49:34;;;;;;;3.30;1.27;;;;;;;;;;4991566;28;20038;-63
2022/11/02 07:52:01;;;;;;;3.00;1.30;;;;;;;;;;4993135;28;20034;-63
2022/11/02 07:54:28;;;;;;;3.40;1.00;;;;;;;;;;4992767;28;20050;-61
2022/11/02 07:56:55;;;;;;;2.22;1.00;;;;;;;;;;4992688;28;20034;-60
2022/11/02 07:59:22;;;;;;;3.28;1.27;;;;;;;;;;4992823;28;20085;-60
2022/11/02 08:01:49;;;;;;;2.58;1.23;;;;;;;;;;4992650;28;20030;-61
2022/11/02 08:04:16;;;;;;;3.05;1.00;;;;;;;;;;4992819;28;20026;-60
2022/11/02 08:06:43;;;;;;;4.50;1.30;;;;;;;;;;4992464;28;20026;-63
2022/11/02 08:09:10;;;;;;;4.80;1.33;;;;;;;;;;4992648;28;20385;-63
2022/11/02 08:11:37;;;;;;;3.15;1.38;;;;;;;;;;4992485;28;20038;-63
2022/11/02 08:14:04;;;;;;;4.75;1.20;;;;;;;;;;4992297;28;20054;-63
2022/11/02 08:16:30;;;;;;;3.00;1.10;;;;;;;;;;4992608;28;20038;-60
2022/11/02 08:18:58;;;;;;;4.97;1.25;;;;;;;;;;4974819;28;20041;-63
2022/11/02 08:21:25;;;;;;;3.13;1.10;;;;;;;;;;4992475;28;20045;-63
2022/11/02 08:23:54;;;;;;;4.43;1.30;;;;;;;;;;4992284;28;20026;-63
2022/11/02 08:26:21;;;;;;;2.90;1.10;;;;;;;;;;4992362;28;20038;-62
2022/11/02 08:28:48;;;;;;;2.67;1.00;;;;;;;;;;4992354;28;20037;-63
2022/11/02 08:31:16;;;;;;;3.50;1.27;;;;;;;;;;4972533;28;20039;-62
2022/11/02 08:33:43;;;;;;;2.42;1.00;;;;;;;;;;4970259;28;20620;-60
2022/11/02 08:36:11;;;;;;;4.57;1.10;;;;;;;;;;4971583;28;20030;-63
2022/11/02 08:38:38;;;;;;;2.72;1.10;;;;;;;;;;4971270;28;20081;-60
2022/11/02 08:41:06;;;;;;;2.30;1.10;;;;;;;;;;4971688;28;20045;-62
2022/11/02 08:43:33;;;;;;;2.83;1.00;;;;;;;;;;4975213;28;22464;-63
2022/11/02 08:46:02;;;;;;;2.75;0.90;;;;;;;;;;4992286;28;20038;-60
2022/11/02 08:48:29;;;;;;;3.53;1.23;;;;;;;;;;4991940;28;20030;-62
2022/11/02 08:50:56;;;;;;;3.28;1.00;;;;;;;;;;4992308;28;20098;-60
2022/11/02 08:53:23;;;;;;;5.00;1.30;;;;;;;;;;4974651;28;20038;-62
2022/11/02 08:55:50;;;;;;;3.85;1.35;;;;;;;;;;4992073;28;20030;-62
2022/11/02 08:58:17;;;;;;;4.85;1.23;;;;;;;;;;4992023;28;20548;-62
2022/11/02 09:00:44;;;;;;;2.88;1.20;;;;;;;;;;4992270;28;20030;-60
2022/11/02 09:03:12;;;;;;;2.75;1.15;;;;;;;;;;4992231;28;20580;-60
2022/11/02 09:05:41;;;;;;;3.30;0.93;;;;;;;;;;4992015;28;20030;-60
2022/11/02 09:08:10;;;;;;;3.58;1.02;;;;;;;;;;4992028;28;20030;-62
2022/11/02 09:10:38;;;;;;;2.00;0.90;;;;;;;;;;4991873;28;20247;-60
2022/11/02 09:13:06;;;;;;;4.40;1.25;;;;;;;;;;4991853;28;20050;-60
2022/11/02 09:15:34;;;;;;;4.47;1.05;;;;;;;;;;4991816;28;20027;-60
2022/11/02 09:18:01;;;;;;;3.72;1.20;;;;;;;;;;4993583;28;20030;-62
2022/11/02 09:20:28;;;;;;;2.63;1.00;;;;;;;;;;4995580;28;20124;-63
2022/11/02 09:22:55;;;;;;;2.35;0.98;;;;;;;;;;4995639;28;20034;-62
2022/11/02 09:25:22;;;;;;;4.88;1.05;;;;;;;;;;4995611;28;20135;-60
2022/11/02 09:27:53;;;;;;;2.60;1.00;;;;;;;;;;4995303;28;20027;-60
2022/11/02 09:30:20;;;;;;;3.72;1.20;;;;;;;;;;4995575;28;20061;-61
2022/11/02 09:32:57;;;;;;;6.70;1.40;;;;;;;;;;4994721;28;20034;-63
2022/11/02 09:35:24;;;;;;;4.68;1.10;;;;;;;;;;4995359;28;20030;-63
2022/11/02 09:37:51;;;;;;;3.17;0.90;;;;;;;;;;4995077;28;20038;-60
2022/11/02 09:40:26;;;;;;;4.25;1.30;;;;;;;;;;4995027;28;20436;-61
2022/11/02 09:43:03;;;;;;;4.75;1.10;;;;;;;;;;4995158;28;20121;-63
2022/11/02 09:45:33;;;;;;;2.65;1.13;;;;;;;;;;4995353;28;20416;-63
2022/11/02 09:47:59;;;;;;;4.13;1.27;;;;;;;;;;4993732;28;20408;-63
2022/11/02 09:50:30;;;;;;;3.97;1.17;;;;;;;;;;4995151;28;20038;-63
2022/11/02 09:53:00;;;;;;;3.13;1.10;;;;;;;;;;4994948;28;20062;-60
2022/11/02 09:55:30;;;;;;;3.35;1.02;;;;;;;;;;4994810;28;20374;-63
2022/11/02 09:58:03;;;;;;;2.83;1.10;;;;;;;;;;4995068;28;20037;-60
2022/11/02 10:00:33;;;;;;;4.55;1.30;;;;;;;;;;4994909;28;20121;-63
2022/11/02 10:03:04;;;;;;;3.70;1.20;;;;;;;;;;4994992;28;20102;-63
2022/11/02 10:05:30;;;;;;;4.10;1.20;;;;;;;;;;4994843;28;20022;-63
2022/11/02 10:08:01;;;;;;;5.15;1.02;;;;;;;;;;4994888;28;20042;-60
2022/11/02 10:10:46;;;;;;;5.35;1.10;;;;;;;;;;4994816;28;20782;-63
2022/11/02 10:13:19;;;;;;;6.75;1.42;;;;;;;;;;4994488;28;20049;-60
2022/11/02 10:15:54;;;;;;;3.58;0.85;;;;;;;;;;4994703;28;20022;-63
2022/11/02 10:18:25;;;;;;;8.27;1.20;;;;;;;;;;4994627;28;20070;-63
2022/11/02 10:20:59;;;;;;;6.57;1.23;;;;;;;;;;4994531;28;20065;-63
2022/11/02 10:23:32;;;;;;;8.32;1.38;;;;;;;;;;4994589;28;20026;-63
2022/11/02 10:26:00;;;;;;;7.40;1.30;;;;;;;;;;4994414;28;20034;-60
2022/11/02 10:28:38;;;;;;;6.57;1.30;;;;;;;;;;4994261;28;20030;-60
2022/11/02 10:31:14;;;;;;;7.30;1.00;;;;;;;;;;4994425;28;20034;-60
2022/11/02 10:33:41;;;;;;;7.97;1.38;;;;;;;;;;4994360;28;20053;-60
2022/11/02 10:36:26;;;;;;;4.30;1.10;;;;;;;;;;4994283;28;20038;-62
2022/11/02 10:39:06;;;;;;;5.38;1.33;;;;;;;;;;4994279;28;20129;-60
2022/11/02 10:41:41;;;;;;;4.25;1.20;;;;;;;;;;4981073;28;20080;-62
2022/11/02 10:44:17;;;;;;;3.45;1.10;;;;;;;;;;4994149;28;20045;-60
2022/11/02 10:46:58;;;;;;;5.15;1.10;;;;;;;;;;4994071;28;20100;-63
2022/11/02 10:49:37;;;;;;;5.45;1.15;;;;;;;;;;4993806;28;20554;-60
2022/11/02 10:52:04;;;;;;;8.68;1.55;;;;;;;;;;4994082;28;20800;-60
2022/11/02 10:54:32;;;;;;;8.35;1.20;;;;;;;;;;4993831;28;20026;-60
2022/11/02 10:57:00;;;;;;;5.40;1.58;;;;;;;;;;4994178;28;20038;-64
2022/11/02 10:59:27;;;;;;;8.60;1.38;;;;;;;;;;4993938;28;20042;-63
2022/11/02 11:01:57;;;;;;;8.35;1.40;;;;;;;;;;4983097;28;20038;-61
2022/11/02 11:04:26;;;;;;;8.15;1.65;;;;;;;;;;4972941;28;20046;-62
2022/11/02 11:06:53;;;;;;;6.13;1.30;;;;;;;;;;4973217;28;20078;-63
2022/11/02 11:09:21;;;;;;;9.05;1.90;;;;;;;;;;4989034;28;20488;-58
2022/11/02 11:12:05;;;;;;;10.95;1.52;;;;;;;;;;4993538;28;20035;-59
2022/11/02 11:14:34;;;;;;;16.08;1.80;;;;;;;;;;4993316;28;20469;-62
2022/11/02 11:17:02;;;;;;;13.85;2.05;;;;;;;;;;4991926;28;20030;-60
2022/11/02 11:19:36;;;;;;;11.27;2.15;;;;;;;;;;4973951;28;20041;-62
2022/11/02 11:22:04;;;;;;;9.68;1.90;;;;;;;;;;4970743;28;20751;-60
2022/11/02 11:24:31;;;;;;;13.93;2.70;;;;;;;;;;4972001;28;20085;-60
2022/11/02 11:27:06;;;;;;;15.52;2.35;;;;;;;;;;4972465;28;20244;-62
2022/11/02 11:29:34;;;;;;;13.45;2.63;;;;;;;;;;4972392;28;20031;-62
2022/11/02 11:32:02;;;;;;;13.25;2.30;;;;;;;;;;4972785;28;20038;-62
2022/11/02 11:34:30;;;;;;;14.93;3.00;;;;;;;;;;4975151;28;20038;-60
2022/11/02 11:37:09;;;;;;;16.90;3.53;;;;;;;;;;4991631;28;20110;-61
2022/11/02 11:39:36;;;;;;;30.73;3.85;;;;;;;;;;4990432;28;20031;-63
2022/11/02 11:42:04;;;;;;;16.92;2.90;;;;;;;;;;4992036;28;20080;-57
2022/11/02 11:44:32;;;;;;;19.45;3.45;;;;;;;;;;4992260;28;20022;-56
2022/11/02 11:46:59;;;;;;;17.98;3.63;;;;;;;;;;4992330;28;20076;-60
2022/11/02 11:49:29;;;;;;;16.50;3.53;;;;;;;;;;4991111;28;20536;-63
2022/11/02 11:51:56;;;;;;;22.08;3.88;;;;;;;;;;4991406;28;20033;-62
2022/11/02 11:54:26;;;;;;;21.50;3.92;;;;;;;;;;4991917;28;20088;-55
2022/11/02 11:56:55;;;;;;;14.82;3.65;;;;;;;;;;4991945;28;20038;-59
2022/11/02 11:59:34;;;;;;;17.67;3.75;;;;;;;;;;4990835;28;20022;-63
2022/11/02 12:02:01;;;;;;;26.55;4.40;;;;;;;;;;4990845;28;20030;-55
2022/11/02 12:04:32;;;;;;;21.05;3.95;;;;;;;;;;4991408;28;20042;-59
2022/11/02 12:07:07;;;;;;;14.73;3.33;;;;;;;;;;4991737;28;20056;-59
2022/11/02 12:09:43;;;;;;;17.85;3.03;;;;;;;;;;4991725;28;20496;-60
2022/11/02 12:12:27;;;;;;;22.08;3.33;;;;;;;;;;4991134;28;20045;-59
2022/11/02 12:15:09;;;;;;;12.73;2.80;;;;;;;;;;4992402;28;20046;-60
2022/11/02 12:17:43;;;;;;;15.50;2.60;;;;;;;;;;4991557;28;20149;-60
2022/11/02 12:20:10;;;;;;;18.33;3.05;;;;;;;;;;4992049;28;20041;-56
2022/11/02 12:22:37;;;;;;;23.30;3.65;;;;;;;;;;4991005;28;20503;-61
2022/11/02 12:25:04;;;;;;;26.55;4.70;;;;;;;;;;4992166;28;20026;-62
2022/11/02 12:27:53;;;;;;;22.52;4.38;;;;;;;;;;4990982;28;20033;-61
2022/11/02 12:30:34;;;;;;;21.95;3.58;;;;;;;;;;4992070;28;20480;-62
2022/11/02 12:33:24;;;;;;;16.20;3.22;;;;;;;;;;4991270;28;20634;-63
2022/11/02 12:36:07;;;;;;;19.52;3.70;;;;;;;;;;4989029;28;20042;-61
2022/11/02 12:38:50;;;;;;;19.73;3.63;;;;;;;;;;4991026;28;20033;-61
2022/11/02 12:41:35;;;;;;;19.10;3.33;;;;;;;;;;4991822;28;20388;-64
2022/11/02 12:44:26;;;;;;;16.67;3.90;;;;;;;;;;4990373;28;20026;-64
2022/11/02 12:46:52;;;;;;;16.33;3.13;;;;;;;;;;4987672;28;20097;-60
2022/11/02 12:49:32;;;;;;;12.68;3.20;;;;;;;;;;4991129;28;20026;-61
2022/11/02 12:52:05;;;;;;;16.92;3.40;;;;;;;;;;4987834;28;20177;-64
2022/11/02 12:54:37;;;;;;;23.77;3.92;;;;;;;;;;4995043;28;20117;-64
2022/11/02 12:57:05;;;;;;;19.00;3.80;;;;;;;;;;4995771;28;20022;-58
2022/11/02 12:59:33;;;;;;;14.32;3.42;;;;;;;;;;4995028;28;20035;-50
2022/11/02 13:02:26;;;;;;;14.18;3.17;;;;;;;;;;4995532;28;20104;-59
2022/11/02 13:04:52;;;;;;;;;;;;;;;;;;4994371;28;20042;-56
2022/11/02 13:07:24;;;;;;;18.13;3.40;;;;;;;;;;4983845;28;20000;-57
2022/11/02 13:10:13;;;;;;;13.35;3.33;;;;;;;;;;4975478;28;20034;-59
2022/11/02 13:12:41;;;;;;;18.58;3.22;;;;;;;;;;4987052;28;20125;-54
2022/11/02 13:15:13;;;;;;;20.52;3.10;;;;;;;;;;4985389;28;20046;-58
2022/11/02 13:17:55;;;;;;;14.80;2.43;;;;;;;;;;4981076;28;20023;-60
2022/11/02 13:20:25;;;;;;;20.83;3.00;;;;;;;;;;4974761;28;20041;-60
2022/11/02 13:23:12;;;;;;;17.58;2.67;;;;;;;;;;4974443;28;20503;-60
2022/11/02 13:25:46;;;;;;;22.65;3.03;;;;;;;;;;4975934;28;20519;-57
2022/11/02 13:28:17;;;;;;;17.77;3.28;;;;;;;;;;4974590;28;20089;-53
2022/11/02 13:30:44;;;;;;;19.85;3.25;;;;;;;;;;4980163;28;20042;-59
2022/11/02 13:33:15;;;;;;;19.85;3.08;;;;;;;;;;4994962;28;20034;-59
2022/11/02 13:35:44;;;;;;;19.77;3.13;;;;;;;;;;4994791;28;20026;-57
2022/11/02 13:38:27;;;;;;;21.63;3.53;;;;;;;;;;4995357;28;20034;-54
2022/11/02 13:40:59;;;;;;;17.42;3.58;;;;;;;;;;4995447;28;20113;-55
2022/11/02 13:43:29;;;;;;;15.75;2.97;;;;;;;;;;4995455;28;20022;-57
2022/11/02 13:46:16;;;;;;;16.23;2.95;;;;;;;;;;4995406;28;20054;-60
2022/11/02 13:48:43;;;;;;;21.95;3.20;;;;;;;;;;4946230;28;20073;-60
2022/11/02 13:51:16;;;;;;;14.00;2.53;;;;;;;;;;4994863;28;20137;-59
2022/11/02 13:53:48;;;;;;;19.25;3.22;;;;;;;;;;4989544;28;20472;-58
2022/11/02 13:56:21;;;;;;;17.02;2.90;;;;;;;;;;4991801;28;20465;-58
2022/11/02 13:58:54;;;;;;;22.80;3.58;;;;;;;;;;4993922;28;20089;-61
2022/11/02 14:01:22;;;;;;;25.15;3.15;;;;;;;;;;4994520;28;20397;-60
2022/11/02 14:03:56;;;;;;;22.02;3.47;;;;;;;;;;4979240;28;20081;-53
2022/11/02 14:06:24;;;;;;;23.02;3.40;;;;;;;;;;4981427;28;20054;-58
2022/11/02 14:08:57;;;;;;;28.13;3.72;;;;;;;;;;4991847;28;20041;-58
2022/11/02 14:11:46;;;;;;;18.73;2.90;;;;;;;;;;4982862;28;20039;-63
2022/11/02 14:14:24;;;;;;;21.10;3.03;;;;;;;;;;4977635;28;20042;-62
2022/11/02 14:16:50;;;;;;;38.85;3.75;;;;;;;;;;4993591;28;20045;-61
2022/11/02 14:19:17;;;;;;;22.13;3.42;;;;;;;;;;4980344;28;20469;-63
2022/11/02 14:21:46;;;;;;;19.33;3.30;;;;;;;;;;4994251;28;20053;-62
2022/11/02 14:24:31;;;;;;;22.33;3.47;;;;;;;;;;4994086;28;20065;-62
2022/11/02 14:26:58;;;;;;;22.50;3.10;;;;;;;;;;4993494;28;20034;-60
2022/11/02 14:29:48;;;;;;;23.90;3.10;;;;;;;;;;4987068;28;20059;-62
2022/11/02 14:32:25;;;;;;;24.10;3.40;;;;;;;;;;4974608;28;20043;-60
2022/11/02 14:35:03;;;;;;;27.17;3.25;;;;;;;;;;4993466;28;20034;-58
2022/11/02 14:37:30;;;;;;;23.27;3.13;;;;;;;;;;4992755;28;20110;-59
2022/11/02 14:40:13;;;;;;;24.23;3.03;;;;;;;;;;4993497;28;20488;-53
2022/11/02 14:42:47;;;;;;;32.33;3.55;;;;;;;;;;4994045;28;20501;-57
2022/11/02 14:45:32;;;;;;;12.60;2.70;;;;;;;;;;4994131;28;20054;-59
2022/11/02 14:48:02;;;;;;;23.77;2.95;;;;;;;;;;4992447;28;20030;-59
2022/11/02 14:50:29;;;;;;;31.52;3.50;;;;;;;;;;4993947;28;20041;-54
2022/11/02 14:53:05;;;;;;;27.45;3.45;;;;;;;;;;4993603;28;20030;-53
2022/11/02 14:55:33;;;;;;;32.80;4.53;;;;;;;;;;4989355;28;20035;-59
2022/11/02 14:58:02;;;;;;;35.28;4.40;;;;;;;;;;4973306;28;20031;-57
2022/11/02 15:00:29;;;;;;;42.83;4.07;;;;;;;;;;4975232;28;20030;-57
2022/11/02 15:02:57;;;;;;;31.55;3.60;;;;;;;;;;4992281;28;20080;-57
2022/11/02 15:05:34;;;;;;;25.00;3.80;;;;;;;;;;4991974;28;20512;-50
2022/11/02 15:08:16;;;;;;;20.13;3.88;;;;;;;;;;4991924;28;20030;-52
2022/11/02 15:10:44;;;;;;;29.75;4.03;;;;;;;;;;4984446;28;20448;-58